createdAt,value
2022-09-12T00:01:51.436Z,11.23
2022-09-12T00:04:18.164Z,12.48
2022-09-12T00:06:45.037Z,13.55
2022-09-12T00:09:14.011Z,12.82
2022-09-12T00:11:43.607Z,13.98
2022-09-12T00:14:13.738Z,14.45
2022-09-12T00:16:40.674Z,13.18
2022-09-12T00:19:08.678Z,13.90
2022-09-12T00:21:36.952Z,13.95
2022-09-12T00:24:04.383Z,13.82
2022-09-12T00:26:31.643Z,13.63
2022-09-12T00:28:58.296Z,13.80
2022-09-12T00:31:26.749Z,12.85
2022-09-12T00:33:56.176Z,14.10
2022-09-12T00:36:24.678Z,14.13
2022-09-12T00:38:52.181Z,14.15
2022-09-12T00:41:22.455Z,14.10
2022-09-12T00:43:51.868Z,14.35
2022-09-12T00:46:27.255Z,13.95
2022-09-12T00:49:01.495Z,13.23
2022-09-12T00:51:30.510Z,14.90
2022-09-12T00:53:59.348Z,13.82
2022-09-12T00:56:27.625Z,15.20
2022-09-12T00:59:02.410Z,14.50
2022-09-12T01:01:32.577Z,13.10
2022-09-12T01:04:00.485Z,15.05
2022-09-12T01:06:32.872Z,13.73
2022-09-12T01:09:03.440Z,15.25
2022-09-12T01:11:32.233Z,14.43
2022-09-12T01:13:59.688Z,14.63
2022-09-12T01:16:26.406Z,13.23
2022-09-12T01:18:57.816Z,14.27
2022-09-12T01:21:46.212Z,13.35
2022-09-12T01:24:40.674Z,12.68
2022-09-12T01:27:21.082Z,13.10
2022-09-12T01:30:05.064Z,13.15
2022-09-12T01:33:08.926Z,13.45
2022-09-12T01:36:09.853Z,13.23
2022-09-12T01:38:38.149Z,12.93
2022-09-12T01:41:27.095Z,13.63
2022-09-12T01:44:06.767Z,13.13
2022-09-12T01:46:50.798Z,13.15
2022-09-12T01:49:25.240Z,12.57
2022-09-12T01:52:12.713Z,14.10
2022-09-12T01:54:46.165Z,11.73
2022-09-12T01:57:38.166Z,12.27
2022-09-12T02:00:10.575Z,12.75
2022-09-12T02:02:43.271Z,11.93
2022-09-12T02:05:17.364Z,11.45
2022-09-12T02:07:51.278Z,10.60
2022-09-12T02:10:23.019Z,12.95
2022-09-12T02:12:55.943Z,11.77
2022-09-12T02:15:27.344Z,12.50
2022-09-12T02:17:57.925Z,11.70
2022-09-12T02:20:46.956Z,12.15
2022-09-12T02:23:20.460Z,12.27
2022-09-12T02:25:50.960Z,11.57
2022-09-12T02:28:27.539Z,11.75
2022-09-12T02:31:05.204Z,11.52
2022-09-12T02:33:46.552Z,10.82
2022-09-12T02:36:33.200Z,10.25
2022-09-12T02:39:00.216Z,11.43
2022-09-12T02:41:26.958Z,11.25
2022-09-12T02:43:54.209Z,10.77
2022-09-12T02:46:36.410Z,11.18
2022-09-12T02:49:03.410Z,11.57
2022-09-12T02:51:30.810Z,11.88
2022-09-12T02:53:57.818Z,11.70
2022-09-12T02:56:28.429Z,11.15
2022-09-12T02:59:01.369Z,11.48
2022-09-12T03:01:50.200Z,11.60
2022-09-12T03:04:48.154Z,10.50
2022-09-12T03:07:34.301Z,12.05
2022-09-12T03:10:01.354Z,10.95
2022-09-12T03:12:55.673Z,11.13
2022-09-12T03:15:53.346Z,10.25
2022-09-12T03:18:32.725Z,11.15
2022-09-12T03:21:09.530Z,12.00
2022-09-12T03:23:48.027Z,13.30
2022-09-12T03:26:31.491Z,12.98
2022-09-12T03:28:59.373Z,11.85
2022-09-12T03:31:25.973Z,13.00
2022-09-12T03:33:52.589Z,13.75
2022-09-12T03:36:25.412Z,13.27
2022-09-12T03:38:52.642Z,13.68
2022-09-12T03:41:19.609Z,13.60
2022-09-12T03:43:46.355Z,14.43
2022-09-12T03:46:13.696Z,12.85
2022-09-12T03:48:41.299Z,14.05
2022-09-12T03:51:09.933Z,14.23
2022-09-12T03:53:36.618Z,12.73
2022-09-12T03:56:08.433Z,13.02
2022-09-12T03:58:36.240Z,13.30
2022-09-12T04:01:14.030Z,13.05
2022-09-12T04:03:42.245Z,12.65
2022-09-12T04:06:11.044Z,13.63
2022-09-12T04:08:38.244Z,12.75
2022-09-12T04:11:10.206Z,13.00
2022-09-12T04:13:39.530Z,13.15
2022-09-12T04:16:07.349Z,13.30
2022-09-12T04:18:34.601Z,12.07
2022-09-12T04:21:10.642Z,13.15
2022-09-12T04:23:37.970Z,11.65
2022-09-12T04:26:08.673Z,11.80
2022-09-12T04:28:37.258Z,11.52
2022-09-12T04:31:07.453Z,12.02
2022-09-12T04:33:35.137Z,11.27
2022-09-12T04:36:06.845Z,11.48
2022-09-12T04:38:34.521Z,10.73
2022-09-12T04:41:01.289Z,10.70
2022-09-12T04:43:28.041Z,10.23
2022-09-12T04:45:54.688Z,10.20
2022-09-12T04:48:21.357Z,9.90
2022-09-12T04:50:47.957Z,9.70
2022-09-12T04:53:14.564Z,8.73
2022-09-12T04:55:41.196Z,9.95
2022-09-12T04:58:07.819Z,8.85
2022-09-12T05:00:35.039Z,10.00
2022-09-12T05:03:01.658Z,9.40
2022-09-12T05:05:28.274Z,9.73
2022-09-12T05:07:54.950Z,9.20
2022-09-12T05:10:23.834Z,9.07
2022-09-12T05:12:50.529Z,9.48
2022-09-12T05:15:17.113Z,9.18
2022-09-12T05:17:44.016Z,8.18
2022-09-12T05:20:12.638Z,9.35
2022-09-12T05:22:39.213Z,8.25
2022-09-12T05:25:06.464Z,8.70
2022-09-12T05:27:33.093Z,9.43
2022-09-12T05:29:59.705Z,9.23
2022-09-12T05:32:26.373Z,8.20
2022-09-12T05:34:53.026Z,8.07
2022-09-12T05:37:19.603Z,9.07
2022-09-12T05:39:46.323Z,9.00
2022-09-12T05:42:13.212Z,8.20
2022-09-12T05:44:39.813Z,8.68
2022-09-12T05:47:06.529Z,9.25
2022-09-12T05:49:34.909Z,8.30
2022-09-12T05:52:01.747Z,8.40
2022-09-12T05:54:31.664Z,8.35
2022-09-12T05:56:58.478Z,8.02
2022-09-12T05:59:25.108Z,7.90
2022-09-12T06:01:52.331Z,8.85
2022-09-12T06:04:19.018Z,8.88
2022-09-12T06:06:46.219Z,8.88
2022-09-12T06:09:15.224Z,8.32
2022-09-12T06:11:42.707Z,8.35
2022-09-12T06:14:11.925Z,8.57
2022-09-12T06:16:39.100Z,8.93
2022-09-12T06:19:12.189Z,8.30
2022-09-12T06:21:39.879Z,8.70
2022-09-12T06:24:07.460Z,8.45
2022-09-12T06:26:34.849Z,8.40
2022-09-12T06:29:01.918Z,8.30
2022-09-12T06:31:32.127Z,7.88
2022-09-12T06:34:01.762Z,7.43
2022-09-12T06:36:30.973Z,7.57
2022-09-12T06:39:03.322Z,6.72
2022-09-12T06:41:31.181Z,7.47
2022-09-12T06:43:58.567Z,7.25
2022-09-12T06:46:26.128Z,7.20
2022-09-12T06:48:53.014Z,7.03
2022-09-12T06:51:22.637Z,7.00
2022-09-12T06:53:49.974Z,6.78
2022-09-12T06:56:19.998Z,7.10
2022-09-12T06:58:48.035Z,7.70
2022-09-12T07:01:19.749Z,7.05
2022-09-12T07:03:51.850Z,6.65
2022-09-12T07:06:20.824Z,7.00
2022-09-12T07:08:47.924Z,6.97
2022-09-12T07:11:16.010Z,6.55
2022-09-12T07:13:45.162Z,6.25
2022-09-12T07:16:17.294Z,6.63
2022-09-12T07:18:53.949Z,6.30
2022-09-12T07:21:21.145Z,6.45
2022-09-12T07:23:48.365Z,6.15
2022-09-12T07:26:16.669Z,6.45
2022-09-12T07:28:44.090Z,6.05
2022-09-12T07:31:15.083Z,5.80
2022-09-12T07:33:43.214Z,6.25
2022-09-12T07:36:14.633Z,6.32
2022-09-12T07:38:42.127Z,6.38
2022-09-12T07:41:20.860Z,5.82
2022-09-12T07:43:48.288Z,5.88
2022-09-12T07:46:15.263Z,6.75
2022-09-12T07:48:42.042Z,6.57
2022-09-12T07:51:11.290Z,6.15
2022-09-12T07:53:41.144Z,6.57
2022-09-12T07:56:10.246Z,6.63
2022-09-12T07:58:38.890Z,5.65
2022-09-12T08:01:07.103Z,6.20
2022-09-12T08:03:34.074Z,6.07
2022-09-12T08:06:12.619Z,5.95
2022-09-12T08:08:39.583Z,6.32
2022-09-12T08:11:08.783Z,5.75
2022-09-12T08:13:37.247Z,6.55
2022-09-12T08:16:07.035Z,5.97
2022-09-12T08:18:35.445Z,6.97
2022-09-12T08:21:05.080Z,6.13
2022-09-12T08:23:31.798Z,5.75
2022-09-12T08:26:04.144Z,5.85
2022-09-12T08:28:34.151Z,6.03
2022-09-12T08:31:13.509Z,6.63
2022-09-12T08:33:40.678Z,6.45
2022-09-12T08:36:12.153Z,7.25
2022-09-12T08:38:41.110Z,6.70
2022-09-12T08:41:34.737Z,5.90
2022-09-12T08:44:26.565Z,6.47
2022-09-12T08:46:59.069Z,6.25
2022-09-12T08:49:51.444Z,6.15
2022-09-12T08:52:40.939Z,6.10
2022-09-12T08:55:19.445Z,6.57
2022-09-12T08:57:46.228Z,6.97
2022-09-12T09:00:14.986Z,6.22
2022-09-12T09:03:00.121Z,6.70
2022-09-12T09:06:00.680Z,6.65
2022-09-12T09:08:46.604Z,6.10
2022-09-12T09:11:31.994Z,6.10
2022-09-12T09:14:42.144Z,6.22
2022-09-12T09:17:18.046Z,5.88
2022-09-12T09:19:51.315Z,6.25
2022-09-12T09:22:42.762Z,6.38
2022-09-12T09:25:50.697Z,5.70
2022-09-12T09:28:42.262Z,6.88
2022-09-12T09:31:15.459Z,7.13
2022-09-12T09:33:42.623Z,5.90
2022-09-12T09:36:37.404Z,6.35
2022-09-12T09:39:37.131Z,5.80
2022-09-12T09:42:27.384Z,5.65
2022-09-12T09:44:58.677Z,5.68
2022-09-12T09:47:25.621Z,6.88
2022-09-12T09:49:52.305Z,6.40
2022-09-12T09:52:26.149Z,5.80
2022-09-12T09:54:58.327Z,6.22
2022-09-12T09:57:34.068Z,5.22
2022-09-12T10:00:30.497Z,6.13
2022-09-12T10:03:13.576Z,6.25
2022-09-12T10:06:14.081Z,6.25
2022-09-12T10:08:41.046Z,6.22
2022-09-12T10:11:17.677Z,5.75
2022-09-12T10:13:51.299Z,6.65
2022-09-12T10:16:25.866Z,6.68
2022-09-12T10:18:54.102Z,6.68
2022-09-12T10:21:30.308Z,6.22
2022-09-12T10:24:03.639Z,6.32
2022-09-12T10:26:40.215Z,6.93
2022-09-12T10:29:17.446Z,5.28
2022-09-12T10:31:57.117Z,6.38
2022-09-12T10:34:36.155Z,6.15
2022-09-12T10:37:06.573Z,6.43
2022-09-12T10:39:35.895Z,6.53
2022-09-12T10:42:04.658Z,5.93
2022-09-12T10:44:34.428Z,7.03
2022-09-12T10:47:20.540Z,6.07
2022-09-12T10:49:47.185Z,5.45
2022-09-12T10:52:24.847Z,5.28
2022-09-12T10:54:51.983Z,5.53
2022-09-12T10:57:32.887Z,6.03
2022-09-12T11:00:17.883Z,5.65
2022-09-12T11:02:53.055Z,5.47
2022-09-12T11:05:51.069Z,5.75
2022-09-12T11:08:29.028Z,5.53
2022-09-12T11:11:10.673Z,6.13
2022-09-12T11:14:02.414Z,5.72
2022-09-12T11:16:55.859Z,5.00
2022-09-12T11:19:38.328Z,5.25
2022-09-12T11:22:19.697Z,5.00
2022-09-12T11:24:51.825Z,4.93
2022-09-12T11:27:54.752Z,4.03
2022-09-12T11:30:21.768Z,4.82
2022-09-12T11:33:12.678Z,3.80
2022-09-12T11:35:53.038Z,4.28
2022-09-12T11:38:47.361Z,3.45
2022-09-12T11:41:26.300Z,3.42
2022-09-12T11:44:24.379Z,3.85
2022-09-12T11:46:52.107Z,3.25
2022-09-12T11:49:25.851Z,3.10
2022-09-12T11:51:55.387Z,3.50
2022-09-12T11:55:00.758Z,3.63
2022-09-12T11:57:49.914Z,3.90
2022-09-12T12:00:19.815Z,4.43
2022-09-12T12:03:08.530Z,3.88
2022-09-12T12:05:44.643Z,3.88
2022-09-12T12:08:12.185Z,3.00
2022-09-12T12:10:44.451Z,4.00
2022-09-12T12:13:38.523Z,2.90
2022-09-12T12:16:15.605Z,3.58
2022-09-12T12:18:43.588Z,3.92
2022-09-12T12:21:32.236Z,4.30
2022-09-12T12:24:07.994Z,4.30
2022-09-12T12:26:40.601Z,4.10
2022-09-12T12:29:16.634Z,3.97
2022-09-12T12:31:58.730Z,3.55
2022-09-12T12:34:35.738Z,3.65
2022-09-12T12:37:25.286Z,4.15
2022-09-12T12:40:20.756Z,3.85
2022-09-12T12:42:47.369Z,4.15
2022-09-12T12:45:17.741Z,3.47
2022-09-12T12:47:47.529Z,3.47
2022-09-12T12:50:29.174Z,3.33
2022-09-12T12:53:00.789Z,4.07
2022-09-12T12:55:38.518Z,3.85
2022-09-12T12:58:07.282Z,3.80
2022-09-12T13:00:40.253Z,3.78
2022-09-12T13:03:24.860Z,3.67
2022-09-12T13:05:55.686Z,4.07
2022-09-12T13:08:31.514Z,3.70
2022-09-12T13:11:23.461Z,3.53
2022-09-12T13:14:01.989Z,3.80
2022-09-12T13:16:50.800Z,4.03
2022-09-12T13:19:27.043Z,3.45
2022-09-12T13:22:03.304Z,3.53
2022-09-12T13:24:30.942Z,3.50
2022-09-12T13:26:57.811Z,3.03
2022-09-12T13:29:26.743Z,3.50
2022-09-12T13:31:59.732Z,2.97
2022-09-12T13:34:31.351Z,2.92
2022-09-12T13:37:14.859Z,3.33
2022-09-12T13:39:50.051Z,2.88
2022-09-12T13:42:53.519Z,2.65
2022-09-12T13:45:23.140Z,2.70
2022-09-12T13:48:23.595Z,3.47
2022-09-12T13:50:57.288Z,2.33
2022-09-12T13:53:27.065Z,2.22
2022-09-12T13:55:59.931Z,2.40
2022-09-12T13:58:31.839Z,2.58
2022-09-12T14:01:10.683Z,2.38
2022-09-12T14:04:00.269Z,2.90
2022-09-12T14:06:28.357Z,2.58
2022-09-12T14:08:58.473Z,2.50
2022-09-12T14:11:28.180Z,2.20
2022-09-12T14:13:56.132Z,2.58
2022-09-12T14:16:23.987Z,2.38
2022-09-12T14:18:51.789Z,2.75
2022-09-12T14:21:35.459Z,2.40
2022-09-12T14:24:04.950Z,2.63
2022-09-12T14:26:35.441Z,2.45
2022-09-12T14:29:06.017Z,1.95
2022-09-12T14:31:37.941Z,2.58
2022-09-12T14:34:16.221Z,1.98
2022-09-12T14:36:50.385Z,2.00
2022-09-12T14:39:22.502Z,1.80
2022-09-12T14:41:51.289Z,1.90
2022-09-12T14:44:25.197Z,2.25
2022-09-12T14:46:52.277Z,2.10
2022-09-12T14:49:27.165Z,2.15
2022-09-12T14:52:00.807Z,1.88
2022-09-12T14:54:30.442Z,2.53
2022-09-12T14:57:32.957Z,3.00
2022-09-12T15:00:11.639Z,1.60
2022-09-12T15:02:39.380Z,2.10
2022-09-12T15:05:08.978Z,1.77
2022-09-12T15:08:02.437Z,2.22
2022-09-12T15:10:34.896Z,3.53
2022-09-12T15:13:16.580Z,2.28
2022-09-12T15:15:46.158Z,1.67
2022-09-12T15:18:13.791Z,1.85
2022-09-12T15:20:43.750Z,1.88
2022-09-12T15:23:19.014Z,1.75
2022-09-12T15:25:46.142Z,2.17
2022-09-12T15:28:19.203Z,2.30
2022-09-12T15:30:49.505Z,2.92
2022-09-12T15:33:18.644Z,2.78
2022-09-12T15:35:45.582Z,2.60
2022-09-12T15:38:12.526Z,3.13
2022-09-12T15:40:39.214Z,2.53
2022-09-12T15:43:05.911Z,2.70
2022-09-12T15:45:34.827Z,2.88
2022-09-12T15:48:03.243Z,2.45
2022-09-12T15:50:30.731Z,2.30
2022-09-12T15:52:58.211Z,2.20
2022-09-12T15:55:29.894Z,2.10
2022-09-12T15:57:56.522Z,2.20
2022-09-12T16:00:23.192Z,2.97
2022-09-12T16:02:52.184Z,2.40
2022-09-12T16:05:25.083Z,2.30
2022-09-12T16:07:53.686Z,1.98
2022-09-12T16:10:30.286Z,1.70
2022-09-12T16:12:57.567Z,3.20
2022-09-12T16:15:25.567Z,2.80
2022-09-12T16:17:52.720Z,2.30
2022-09-12T16:20:20.015Z,2.15
2022-09-12T16:22:46.708Z,2.15
2022-09-12T16:25:13.682Z,2.90
2022-09-12T16:27:40.553Z,2.30
2022-09-12T16:30:08.089Z,2.33
2022-09-12T16:32:34.790Z,2.10
2022-09-12T16:35:01.850Z,2.10
2022-09-12T16:37:28.525Z,2.20
2022-09-12T16:39:55.544Z,2.20
2022-09-12T16:42:22.315Z,2.00
2022-09-12T16:44:49.013Z,2.78
2022-09-12T16:47:15.671Z,1.90
2022-09-12T16:49:42.339Z,2.13
2022-09-12T16:52:09.171Z,3.72
2022-09-12T16:54:36.025Z,3.65
2022-09-12T16:57:05.073Z,2.78
2022-09-12T16:59:31.940Z,2.78
2022-09-12T17:01:58.705Z,2.80
2022-09-12T17:04:25.487Z,3.20
2022-09-12T17:06:52.140Z,2.88
2022-09-12T17:09:18.878Z,2.78
2022-09-12T17:11:50.206Z,2.03
2022-09-12T17:14:17.286Z,2.10
2022-09-12T17:16:50.824Z,2.38
2022-09-12T17:19:26.387Z,1.90
2022-09-12T17:21:53.142Z,1.85
2022-09-12T17:24:20.686Z,2.00
2022-09-12T17:26:47.476Z,1.85
2022-09-12T17:29:14.918Z,1.70
2022-09-12T17:31:42.935Z,2.10
2022-09-12T17:34:14.042Z,1.80
2022-09-12T17:36:44.085Z,1.92
2022-09-12T17:39:12.668Z,1.92
2022-09-12T17:41:41.634Z,2.00
2022-09-12T17:44:10.745Z,2.00
2022-09-12T17:46:38.925Z,1.90
2022-09-12T17:49:09.114Z,1.83
2022-09-12T17:51:35.782Z,2.50
2022-09-12T17:54:08.555Z,2.30
2022-09-12T17:56:36.901Z,2.38
2022-09-12T17:59:04.930Z,2.83
2022-09-12T18:01:50.670Z,2.08
2022-09-12T18:04:19.781Z,2.63
2022-09-12T18:06:50.043Z,2.05
2022-09-12T18:09:20.137Z,2.05
2022-09-12T18:11:48.060Z,2.10
2022-09-12T18:14:15.928Z,2.47
2022-09-12T18:16:43.188Z,2.28
2022-09-12T18:19:10.949Z,2.05
2022-09-12T18:21:38.072Z,2.22
2022-09-12T18:24:06.345Z,2.05
2022-09-12T18:26:33.759Z,2.10
2022-09-12T18:29:00.428Z,2.10
2022-09-12T18:31:29.517Z,2.10
2022-09-12T18:33:57.139Z,2.22
2022-09-12T18:36:23.818Z,2.30
2022-09-12T18:38:50.495Z,2.15
2022-09-12T18:41:21.079Z,2.40
2022-09-12T18:43:48.928Z,2.35
2022-09-12T18:46:19.561Z,2.10
2022-09-12T18:48:47.062Z,2.58
2022-09-12T18:51:16.246Z,2.22
2022-09-12T18:53:43.498Z,2.30
2022-09-12T18:56:12.719Z,2.08
2022-09-12T18:58:41.588Z,2.72
2022-09-12T19:01:20.429Z,2.17
2022-09-12T19:03:47.635Z,2.08
2022-09-12T19:06:20.055Z,2.22
2022-09-12T19:08:47.481Z,2.45
2022-09-12T19:11:14.992Z,2.15
2022-09-12T19:13:44.354Z,2.17
2022-09-12T19:16:17.465Z,2.47
2022-09-12T19:18:45.367Z,1.60
2022-09-12T19:21:22.676Z,1.88
2022-09-12T19:23:49.679Z,2.05
2022-09-12T19:26:17.708Z,2.15
2022-09-12T19:28:46.341Z,2.20
2022-09-12T19:31:15.547Z,2.42
2022-09-12T19:33:42.720Z,2.33
2022-09-12T19:36:27.672Z,2.35
2022-09-12T19:38:59.950Z,2.22
2022-09-12T19:41:26.815Z,2.05
2022-09-12T19:43:55.299Z,2.10
2022-09-12T19:46:23.851Z,2.20
2022-09-12T19:48:51.511Z,1.90
2022-09-12T19:51:19.121Z,2.53
2022-09-12T19:53:45.996Z,2.10
2022-09-12T19:56:14.549Z,2.17
2022-09-12T19:58:44.178Z,2.42
2022-09-12T20:01:13.570Z,2.30
2022-09-12T20:03:41.443Z,2.60
2022-09-12T20:06:10.769Z,2.60
2022-09-12T20:08:38.476Z,2.70
2022-09-12T20:11:05.496Z,2.80
2022-09-12T20:13:32.122Z,2.50
2022-09-12T20:16:22.139Z,3.03
2022-09-12T20:18:57.322Z,2.60
2022-09-12T20:21:31.048Z,2.85
2022-09-12T20:24:03.787Z,2.83
2022-09-12T20:26:31.051Z,2.92
2022-09-12T20:28:57.698Z,3.33
2022-09-12T20:31:24.395Z,2.97
2022-09-12T20:33:52.044Z,3.03
2022-09-12T20:36:20.343Z,3.35
2022-09-12T20:38:52.532Z,3.60
2022-09-12T20:41:20.526Z,3.40
2022-09-12T20:43:51.668Z,3.47
2022-09-12T20:46:21.994Z,3.92
2022-09-12T20:48:49.819Z,3.47
2022-09-12T20:51:16.711Z,3.45
2022-09-12T20:53:43.385Z,3.22
2022-09-12T20:56:10.128Z,3.33
2022-09-12T20:58:40.530Z,2.53
2022-09-12T21:01:11.325Z,2.97
2022-09-12T21:03:38.910Z,3.13
2022-09-12T21:06:06.336Z,3.15
2022-09-12T21:08:33.978Z,2.83
2022-09-12T21:11:00.904Z,2.53
2022-09-12T21:13:27.636Z,2.92
2022-09-12T21:16:04.844Z,3.40
2022-09-12T21:18:32.520Z,3.15
2022-09-12T21:20:59.485Z,3.38
2022-09-12T21:23:27.431Z,3.00
2022-09-12T21:25:54.367Z,3.45
2022-09-12T21:28:21.304Z,3.40
2022-09-12T21:30:49.600Z,3.40
2022-09-12T21:33:16.829Z,3.65
2022-09-12T21:35:43.743Z,3.75
2022-09-12T21:38:10.997Z,3.85
2022-09-12T21:40:37.649Z,3.33
2022-09-12T21:43:04.305Z,3.60
2022-09-12T21:45:30.962Z,3.63
2022-09-12T21:47:57.703Z,3.40
2022-09-12T21:50:24.344Z,3.53
2022-09-12T21:52:50.942Z,3.70
2022-09-12T21:55:18.004Z,3.78
2022-09-12T21:57:44.771Z,3.78
2022-09-12T22:00:15.035Z,3.85
2022-09-12T22:02:42.060Z,3.75
2022-09-12T22:05:10.254Z,3.85
2022-09-12T22:07:37.332Z,3.95
2022-09-12T22:10:04.987Z,4.38
2022-09-12T22:12:31.838Z,4.05
2022-09-12T22:14:58.462Z,3.97
2022-09-12T22:17:25.102Z,4.13
2022-09-12T22:19:51.732Z,4.45
2022-09-12T22:22:37.454Z,4.88
2022-09-12T22:25:04.737Z,3.60
2022-09-12T22:27:31.361Z,3.67
2022-09-12T22:29:57.957Z,3.67
2022-09-12T22:32:24.582Z,4.10
2022-09-12T22:34:51.191Z,4.55
2022-09-12T22:37:17.870Z,4.35
2022-09-12T22:39:44.554Z,4.00
2022-09-12T22:42:11.282Z,4.20
2022-09-12T22:44:37.914Z,4.38
2022-09-12T22:47:04.589Z,4.40
2022-09-12T22:49:31.234Z,4.15
2022-09-12T22:51:57.883Z,4.65
2022-09-12T22:54:24.486Z,4.22
2022-09-12T22:56:51.098Z,4.13
2022-09-12T22:59:18.198Z,4.43
2022-09-12T23:01:44.784Z,3.67
2022-09-12T23:04:11.497Z,4.30
2022-09-12T23:06:38.134Z,4.28
2022-09-12T23:09:04.801Z,3.70
2022-09-12T23:11:31.415Z,4.30
2022-09-12T23:13:58.017Z,4.38
2022-09-12T23:16:25.889Z,4.05
2022-09-12T23:18:52.712Z,4.00
2022-09-12T23:21:21.149Z,3.75
2022-09-12T23:23:48.304Z,4.05
2022-09-12T23:26:21.697Z,3.78
2022-09-12T23:28:56.533Z,3.85
2022-09-12T23:31:24.997Z,4.03
2022-09-12T23:33:55.697Z,4.38
2022-09-12T23:36:22.733Z,4.10
2022-09-12T23:38:49.939Z,5.03
2022-09-12T23:41:18.303Z,5.20
2022-09-12T23:43:45.525Z,4.70
2022-09-12T23:46:13.261Z,4.97
2022-09-12T23:48:40.695Z,4.13
2022-09-12T23:51:07.596Z,4.75
2022-09-12T23:53:35.642Z,4.35
2022-09-12T23:56:02.909Z,4.30
2022-09-12T23:58:30.847Z,4.50
